METAR Data
IDs: Format: Raw Decoded Include TAF

Data at: 1645 UTC 18 Feb 2019

METAR for:KADU (Audubon Cnty Arpt, IA, US)
Text:KADU 181635Z AUTO 00000KT 10SM CLR M11/M13 A3044 RMK AO2
Temperature:-11.0°C ( 12°F)
Dewpoint:-13.0°C ( 9°F) [RH = 85%]
Pressure (altimeter):30.44 inches Hg (1030.9 mb)
Winds:calm
Visibility:10 or more sm (16+ km)
Ceiling:at least 12,000 feet AGL
Clouds:sky clear below 12,000 feet AGL
QC Flag:automated observation with no human augmentation